Time;durP1;ratioP1;P1;durP2;ratioP2;P2;SDS_P1;SDS_P2;PMS_P1;PMS_P2;Temp;Humidity;BMP_temperature;BMP_pressure;BME280_temperature;BME280_humidity;BME280_pressure;Samples;Min_cycle;Max_cycle;Signal;HPM_P1;HPM_P2
2022/04/03 00:01:26;;;;;;;4.80;2.65;;;;;;;;;;5084058;28;20024;-74
2022/04/03 00:03:52;;;;;;;6.05;2.38;;;;;;;;;;5088919;28;20028;-74
2022/04/03 00:06:18;;;;;;;4.60;2.58;;;;;;;;;;5095386;28;20027;-74
2022/04/03 00:08:44;;;;;;;4.50;2.53;;;;;;;;;;5088247;28;20017;-73
2022/04/03 00:11:10;;;;;;;6.47;2.40;;;;;;;;;;5087856;28;20043;-73
2022/04/03 00:13:40;;;;;;;3.35;2.40;;;;;;;;;;5087116;28;20052;-74
2022/04/03 00:16:06;;;;;;;4.30;2.50;;;;;;;;;;5095847;28;20042;-74
2022/04/03 00:18:32;;;;;;;6.28;2.47;;;;;;;;;;5084540;28;20028;-74
2022/04/03 00:20:58;;;;;;;4.30;2.55;;;;;;;;;;5095787;28;20036;-74
2022/04/03 00:23:24;;;;;;;3.83;2.33;;;;;;;;;;5079893;28;20525;-73
2022/04/03 00:25:51;;;;;;;5.35;2.67;;;;;;;;;;5093507;28;20032;-73
2022/04/03 00:28:17;;;;;;;6.15;2.47;;;;;;;;;;5089742;28;20047;-74
2022/04/03 00:30:43;;;;;;;3.78;2.63;;;;;;;;;;5094539;28;20036;-73
2022/04/03 00:33:09;;;;;;;4.80;2.20;;;;;;;;;;5092074;28;20035;-73
2022/04/03 00:35:35;;;;;;;7.05;2.50;;;;;;;;;;5094574;28;20051;-73
2022/04/03 00:38:01;;;;;;;7.15;2.80;;;;;;;;;;5095219;28;20395;-73
2022/04/03 00:40:27;;;;;;;4.90;2.50;;;;;;;;;;5090499;28;20032;-74
2022/04/03 00:42:53;;;;;;;4.15;2.60;;;;;;;;;;5091994;28;20040;-73
2022/04/03 00:45:19;;;;;;;4.55;2.60;;;;;;;;;;5083249;28;20024;-74
2022/04/03 00:47:45;;;;;;;5.55;2.42;;;;;;;;;;5087436;28;20052;-74
2022/04/03 00:50:12;;;;;;;5.38;2.72;;;;;;;;;;5091194;28;20397;-73
2022/04/03 00:52:37;;;;;;;5.38;2.58;;;;;;;;;;5091900;28;20031;-73
2022/04/03 00:55:04;;;;;;;4.18;2.70;;;;;;;;;;5079837;28;20020;-73
2022/04/03 00:57:31;;;;;;;6.03;2.60;;;;;;;;;;5091857;28;20040;-74
2022/04/03 00:59:57;;;;;;;4.95;2.72;;;;;;;;;;5073395;28;20020;-74
2022/04/03 01:02:23;;;;;;;5.82;2.92;;;;;;;;;;5077833;28;20028;-73
2022/04/03 01:04:49;;;;;;;7.93;2.83;;;;;;;;;;5086780;28;20058;-73
2022/04/03 01:07:15;;;;;;;6.03;3.35;;;;;;;;;;5075048;28;20029;-73
2022/04/03 01:09:41;;;;;;;5.03;3.08;;;;;;;;;;5084225;28;20755;-74
2022/04/03 01:12:07;;;;;;;4.72;2.70;;;;;;;;;;5078854;28;20561;-73
2022/04/03 01:14:43;;;;;;;5.57;2.83;;;;;;;;;;5082315;28;20085;-73
2022/04/03 01:17:11;;;;;;;4.07;2.50;;;;;;;;;;5078823;28;20028;-73
2022/04/03 01:19:37;;;;;;;5.45;2.72;;;;;;;;;;5078731;28;20494;-74
2022/04/03 01:22:03;;;;;;;8.45;2.63;;;;;;;;;;5089514;28;20108;-73
2022/04/03 01:24:30;;;;;;;8.52;2.90;;;;;;;;;;5086162;28;20032;-73
2022/04/03 01:26:56;;;;;;;6.88;3.10;;;;;;;;;;5091396;28;20028;-73
2022/04/03 01:29:23;;;;;;;7.55;2.78;;;;;;;;;;5079245;28;20031;-74
2022/04/03 01:31:49;;;;;;;5.57;3.00;;;;;;;;;;5083913;28;20024;-74
2022/04/03 01:34:16;;;;;;;7.57;2.80;;;;;;;;;;5080775;28;20111;-74
2022/04/03 01:36:42;;;;;;;4.53;2.83;;;;;;;;;;5078898;28;20071;-73
2022/04/03 01:39:10;;;;;;;5.45;2.92;;;;;;;;;;5086342;28;20688;-74
2022/04/03 01:41:36;;;;;;;5.22;2.70;;;;;;;;;;5084911;28;20028;-73
2022/04/03 01:44:02;;;;;;;5.55;3.42;;;;;;;;;;5088889;28;20020;-74
2022/04/03 01:46:28;;;;;;;5.15;2.80;;;;;;;;;;5084064;28;20035;-74
2022/04/03 01:48:54;;;;;;;9.07;2.97;;;;;;;;;;5084528;28;20367;-74
2022/04/03 01:51:20;;;;;;;4.97;2.58;;;;;;;;;;5080788;28;20481;-74
2022/04/03 01:53:46;;;;;;;4.88;2.67;;;;;;;;;;5079553;28;20108;-74
2022/04/03 01:56:12;;;;;;;3.90;2.90;;;;;;;;;;5077889;28;20035;-74
2022/04/03 01:58:38;;;;;;;4.75;2.78;;;;;;;;;;5073850;28;20174;-74
2022/04/03 02:01:07;;;;;;;4.57;2.53;;;;;;;;;;5086013;28;20119;-73
2022/04/03 02:03:33;;;;;;;4.25;3.00;;;;;;;;;;5079749;28;20570;-73
2022/04/03 02:05:58;;;;;;;5.45;2.60;;;;;;;;;;5073221;28;20107;-74
2022/04/03 02:08:25;;;;;;;6.88;2.78;;;;;;;;;;5082307;28;20138;-74
2022/04/03 02:10:51;;;;;;;5.85;3.40;;;;;;;;;;5080425;28;20549;-74
2022/04/03 02:13:17;;;;;;;3.42;2.58;;;;;;;;;;5085586;28;20090;-74
2022/04/03 02:15:43;;;;;;;6.55;3.15;;;;;;;;;;5086361;28;20021;-74
2022/04/03 02:18:09;;;;;;;4.85;2.60;;;;;;;;;;5074618;28;20380;-73
2022/04/03 02:20:36;;;;;;;8.07;2.90;;;;;;;;;;5085392;28;20032;-74
2022/04/03 02:23:03;;;;;;;6.97;3.30;;;;;;;;;;5090330;28;20027;-73
2022/04/03 02:25:29;;;;;;;5.65;2.55;;;;;;;;;;5084288;28;20383;-74
2022/04/03 02:27:56;;;;;;;5.20;2.90;;;;;;;;;;5084621;28;20029;-73
2022/04/03 02:30:22;;;;;;;6.20;2.85;;;;;;;;;;5073190;28;20047;-74
2022/04/03 02:32:50;;;;;;;7.13;3.20;;;;;;;;;;5088778;28;20024;-73
2022/04/03 02:35:17;;;;;;;9.68;2.90;;;;;;;;;;5078152;28;20060;-72
2022/04/03 02:37:43;;;;;;;5.78;3.22;;;;;;;;;;5070058;28;20036;-73
2022/04/03 02:40:10;;;;;;;7.47;3.05;;;;;;;;;;5070530;28;20024;-74
2022/04/03 02:42:36;;;;;;;7.00;2.83;;;;;;;;;;5074006;28;20024;-74
2022/04/03 02:45:04;;;;;;;5.05;2.95;;;;;;;;;;5087371;28;20036;-73
2022/04/03 02:47:29;;;;;;;3.97;2.53;;;;;;;;;;5077693;28;20040;-73
2022/04/03 02:49:55;;;;;;;9.48;3.25;;;;;;;;;;5077327;28;20036;-73
2022/04/03 02:52:21;;;;;;;3.95;2.42;;;;;;;;;;5079602;28;20028;-74
2022/04/03 02:54:47;;;;;;;4.65;2.90;;;;;;;;;;5073680;28;20028;-73
2022/04/03 02:57:15;;;;;;;3.28;2.47;;;;;;;;;;5089357;28;20494;-73
2022/04/03 02:59:41;;;;;;;5.25;2.53;;;;;;;;;;5074235;28;20094;-73
2022/04/03 03:02:07;;;;;;;6.78;2.95;;;;;;;;;;5084001;28;20077;-73
2022/04/03 03:04:35;;;;;;;7.50;2.80;;;;;;;;;;5080409;28;20037;-74
2022/04/03 03:07:01;;;;;;;6.28;2.95;;;;;;;;;;5079209;28;20463;-74
2022/04/03 03:09:27;;;;;;;4.75;2.80;;;;;;;;;;5078304;28;20062;-74
2022/04/03 03:11:52;;;;;;;7.72;3.17;;;;;;;;;;5085693;28;20040;-73
2022/04/03 03:14:19;;;;;;;7.00;3.22;;;;;;;;;;5082752;28;20028;-73
2022/04/03 03:16:45;;;;;;;7.13;3.30;;;;;;;;;;5081456;28;20036;-73
2022/04/03 03:19:11;;;;;;;6.25;3.08;;;;;;;;;;5084344;28;20032;-73
2022/04/03 03:21:37;;;;;;;6.70;3.03;;;;;;;;;;5071881;28;20025;-73
2022/04/03 03:24:03;;;;;;;6.55;2.97;;;;;;;;;;5084520;28;20024;-73
2022/04/03 03:26:29;;;;;;;5.35;2.95;;;;;;;;;;5089044;28;20081;-73
2022/04/03 03:28:55;;;;;;;5.53;3.38;;;;;;;;;;5087908;28;20031;-73
2022/04/03 03:31:21;;;;;;;13.38;3.15;;;;;;;;;;5080295;28;20093;-73
2022/04/03 03:33:47;;;;;;;6.47;2.95;;;;;;;;;;5076432;28;20237;-74
2022/04/03 03:36:13;;;;;;;10.95;2.97;;;;;;;;;;5083473;28;20032;-73
2022/04/03 03:38:40;;;;;;;5.10;2.90;;;;;;;;;;5084576;28;20031;-73
2022/04/03 03:41:06;;;;;;;6.18;2.72;;;;;;;;;;5079786;28;20109;-73
2022/04/03 03:43:32;;;;;;;5.65;2.95;;;;;;;;;;5083308;28;20028;-74
2022/04/03 03:45:59;;;;;;;5.55;2.95;;;;;;;;;;5085490;28;20042;-73
2022/04/03 03:48:25;;;;;;;5.68;3.00;;;;;;;;;;5084152;28;20036;-74
2022/04/03 03:50:51;;;;;;;4.75;2.78;;;;;;;;;;5078982;28;20067;-73
2022/04/03 03:53:17;;;;;;;6.00;2.95;;;;;;;;;;5084902;28;20043;-73
2022/04/03 03:55:43;;;;;;;5.05;2.75;;;;;;;;;;5079978;28;20020;-74
2022/04/03 03:58:09;;;;;;;7.00;3.03;;;;;;;;;;5085201;28;20475;-73
2022/04/03 04:00:35;;;;;;;5.75;2.78;;;;;;;;;;5071547;28;20047;-73
2022/04/03 04:03:01;;;;;;;4.70;2.90;;;;;;;;;;5086396;28;20064;-72
2022/04/03 04:05:27;;;;;;;7.65;2.78;;;;;;;;;;5079850;28;20028;-73
2022/04/03 04:07:53;;;;;;;6.60;2.95;;;;;;;;;;5080735;28;20026;-73
2022/04/03 04:10:19;;;;;;;8.23;3.20;;;;;;;;;;5080587;28;20120;-73
2022/04/03 04:12:46;;;;;;;5.90;3.00;;;;;;;;;;5078393;28;20043;-74
2022/04/03 04:15:13;;;;;;;5.63;3.22;;;;;;;;;;5079833;28;20024;-74
2022/04/03 04:17:40;;;;;;;4.85;2.92;;;;;;;;;;5077743;28;20386;-74
2022/04/03 04:20:07;;;;;;;4.65;2.80;;;;;;;;;;5084897;28;20032;-74
2022/04/03 04:22:33;;;;;;;10.85;3.00;;;;;;;;;;5074835;28;20121;-73
2022/04/03 04:24:59;;;;;;;5.50;2.90;;;;;;;;;;5077661;28;20408;-73
2022/04/03 04:27:25;;;;;;;5.53;3.03;;;;;;;;;;5085861;28;20259;-73
2022/04/03 04:29:51;;;;;;;5.18;3.25;;;;;;;;;;5091804;28;20028;-73
2022/04/03 04:32:17;;;;;;;6.10;2.95;;;;;;;;;;5079376;28;20060;-74
2022/04/03 04:34:43;;;;;;;7.45;3.20;;;;;;;;;;5083253;28;20036;-74
2022/04/03 04:37:09;;;;;;;6.40;3.33;;;;;;;;;;5082511;28;20386;-73
2022/04/03 04:39:35;;;;;;;12.88;3.45;;;;;;;;;;5078753;28;20024;-73
2022/04/03 04:42:01;;;;;;;7.45;3.22;;;;;;;;;;5085354;28;20032;-73
2022/04/03 04:44:26;;;;;;;6.72;3.63;;;;;;;;;;5081128;28;20115;-73
2022/04/03 04:46:53;;;;;;;3.67;3.08;;;;;;;;;;5089942;28;20533;-73
2022/04/03 04:49:19;;;;;;;5.13;3.13;;;;;;;;;;5086495;28;20028;-73
2022/04/03 04:51:45;;;;;;;5.63;3.40;;;;;;;;;;5085753;28;20020;-72
2022/04/03 04:54:10;;;;;;;7.78;3.60;;;;;;;;;;5088348;28;20403;-74
2022/04/03 04:56:36;;;;;;;8.63;3.75;;;;;;;;;;5089561;28;20028;-73
2022/04/03 04:59:03;;;;;;;7.80;3.72;;;;;;;;;;5087043;28;20497;-73
2022/04/03 05:01:29;;;;;;;6.53;3.85;;;;;;;;;;5076038;28;20021;-73
2022/04/03 05:03:55;;;;;;;7.47;3.80;;;;;;;;;;5082488;28;20028;-73
2022/04/03 05:06:23;;;;;;;5.00;3.47;;;;;;;;;;5083233;28;20079;-74
2022/04/03 05:08:49;;;;;;;5.30;3.70;;;;;;;;;;5082510;28;20040;-73
2022/04/03 05:11:16;;;;;;;7.97;3.53;;;;;;;;;;5087555;28;20035;-73
2022/04/03 05:13:43;;;;;;;7.35;3.70;;;;;;;;;;5085469;28;20461;-73
2022/04/03 05:16:15;;;;;;;9.75;3.63;;;;;;;;;;5089199;28;20066;-73
2022/04/03 05:18:41;;;;;;;4.63;3.30;;;;;;;;;;5081907;28;20036;-72
2022/04/03 05:21:09;;;;;;;5.70;3.05;;;;;;;;;;5091552;28;20027;-73
2022/04/03 05:23:34;;;;;;;5.20;2.90;;;;;;;;;;5076614;28;20501;-73
2022/04/03 05:26:00;;;;;;;5.65;3.17;;;;;;;;;;5083539;28;20024;-73
2022/04/03 05:28:26;;;;;;;5.65;3.08;;;;;;;;;;5071184;28;20260;-73
2022/04/03 05:30:53;;;;;;;6.63;3.30;;;;;;;;;;5088079;28;20028;-72
2022/04/03 05:33:18;;;;;;;6.60;3.10;;;;;;;;;;5087793;28;20024;-73
2022/04/03 05:35:44;;;;;;;5.75;2.67;;;;;;;;;;5079829;28;20433;-72
2022/04/03 05:38:11;;;;;;;3.65;2.40;;;;;;;;;;5083293;28;20024;-73
2022/04/03 05:40:37;;;;;;;4.80;2.50;;;;;;;;;;5071893;28;20402;-73
2022/04/03 05:43:02;;;;;;;6.07;3.05;;;;;;;;;;5079833;28;20032;-73
2022/04/03 05:45:28;;;;;;;4.30;2.58;;;;;;;;;;5090472;28;20551;-73
2022/04/03 05:47:55;;;;;;;5.68;2.80;;;;;;;;;;5079957;28;20052;-73
2022/04/03 05:50:21;;;;;;;4.90;2.35;;;;;;;;;;5083396;28;20594;-73
2022/04/03 05:52:50;;;;;;;6.13;2.45;;;;;;;;;;5079178;28;20078;-74
2022/04/03 05:55:17;;;;;;;5.72;2.72;;;;;;;;;;5083519;28;20024;-73
2022/04/03 05:57:44;;;;;;;6.28;2.10;;;;;;;;;;5085376;28;20395;-73
2022/04/03 06:00:12;;;;;;;4.40;2.53;;;;;;;;;;5088149;28;20039;-72
2022/04/03 06:02:42;;;;;;;3.95;2.63;;;;;;;;;;5076089;28;20107;-73
2022/04/03 06:05:08;;;;;;;3.65;2.38;;;;;;;;;;5080110;28;20143;-72
2022/04/03 06:07:34;;;;;;;5.40;2.30;;;;;;;;;;5072034;28;20028;-73
2022/04/03 06:10:00;;;;;;;6.30;2.63;;;;;;;;;;5085032;28;20033;-72
2022/04/03 06:12:26;;;;;;;4.35;2.50;;;;;;;;;;5086619;28;20067;-73
2022/04/03 06:14:52;;;;;;;4.97;2.40;;;;;;;;;;5078904;28;20074;-72
2022/04/03 06:17:18;;;;;;;4.70;2.40;;;;;;;;;;5078418;28;20024;-71
2022/04/03 06:19:44;;;;;;;3.30;2.13;;;;;;;;;;5085666;28;20372;-71
2022/04/03 06:22:10;;;;;;;3.97;2.42;;;;;;;;;;5078435;28;20024;-72
2022/04/03 06:24:36;;;;;;;5.35;2.47;;;;;;;;;;5084274;28;20471;-71
2022/04/03 06:27:02;;;;;;;4.15;2.50;;;;;;;;;;5078396;28;20033;-72
2022/04/03 06:29:28;;;;;;;5.82;2.60;;;;;;;;;;5077272;28;20035;-72
2022/04/03 06:31:54;;;;;;;6.15;3.03;;;;;;;;;;5079690;28;20016;-72
2022/04/03 06:34:20;;;;;;;4.07;2.42;;;;;;;;;;5087316;28;20692;-72
2022/04/03 06:36:46;;;;;;;6.47;2.70;;;;;;;;;;5090765;28;20162;-71
2022/04/03 06:39:12;;;;;;;6.25;2.50;;;;;;;;;;5077524;28;20102;-72
2022/04/03 06:41:38;;;;;;;6.15;2.35;;;;;;;;;;5076711;28;20020;-72
2022/04/03 06:44:04;;;;;;;8.93;2.47;;;;;;;;;;5088209;28;20519;-71
2022/04/03 06:46:30;;;;;;;4.88;2.40;;;;;;;;;;5077409;28;20032;-72
2022/04/03 06:48:56;;;;;;;3.03;2.25;;;;;;;;;;5078853;28;20451;-71
2022/04/03 06:51:22;;;;;;;4.05;2.58;;;;;;;;;;5086816;28;20043;-71
2022/04/03 06:53:48;;;;;;;5.05;2.78;;;;;;;;;;5080821;28;20437;-71
2022/04/03 06:56:14;;;;;;;6.55;2.72;;;;;;;;;;5082909;28;20028;-72
2022/04/03 06:58:40;;;;;;;6.05;2.45;;;;;;;;;;5082329;28;20030;-72
2022/04/03 07:01:06;;;;;;;4.47;2.50;;;;;;;;;;5075473;28;20036;-72
2022/04/03 07:03:32;;;;;;;4.38;2.30;;;;;;;;;;5073650;28;20034;-72
2022/04/03 07:05:58;;;;;;;4.25;2.58;;;;;;;;;;5077519;28;20020;-71
2022/04/03 07:08:24;;;;;;;5.53;2.30;;;;;;;;;;5070921;28;20111;-73
2022/04/03 07:10:50;;;;;;;5.07;1.95;;;;;;;;;;5073341;28;20151;-76
2022/04/03 07:13:17;;;;;;;5.22;1.92;;;;;;;;;;5081441;28;20052;-72
2022/04/03 07:15:43;;;;;;;4.15;2.17;;;;;;;;;;5081732;28;20074;-72
2022/04/03 07:18:09;;;;;;;3.60;2.30;;;;;;;;;;5078352;28;20121;-73
2022/04/03 07:20:35;;;;;;;3.70;2.38;;;;;;;;;;5066148;28;20043;-76
2022/04/03 07:23:01;;;;;;;5.30;2.15;;;;;;;;;;5083908;28;20028;-77
2022/04/03 07:25:27;;;;;;;3.97;2.28;;;;;;;;;;5086496;28;20063;-78
2022/04/03 07:27:53;;;;;;;4.22;2.20;;;;;;;;;;5082724;28;20060;-79
2022/04/03 07:30:19;;;;;;;4.82;2.65;;;;;;;;;;5078720;28;20536;-72
2022/04/03 07:32:45;;;;;;;3.05;2.28;;;;;;;;;;5079786;28;20024;-75
2022/04/03 07:35:14;;;;;;;4.13;2.40;;;;;;;;;;5086282;28;20107;-74
2022/04/03 07:37:40;;;;;;;4.82;2.40;;;;;;;;;;5074870;28;20378;-76
2022/04/03 07:40:07;;;;;;;3.20;2.45;;;;;;;;;;5072579;28;20467;-74
2022/04/03 07:42:33;;;;;;;4.18;2.40;;;;;;;;;;5073048;28;20435;-73
2022/04/03 07:44:59;;;;;;;3.20;2.35;;;;;;;;;;5080653;28;20257;-73
2022/04/03 07:47:25;;;;;;;7.70;2.38;;;;;;;;;;5073522;28;20486;-77
2022/04/03 07:49:51;;;;;;;5.55;2.75;;;;;;;;;;5081487;28;20031;-77
2022/04/03 07:52:17;;;;;;;5.68;2.85;;;;;;;;;;5071527;28;20028;-83
2022/04/03 07:54:43;;;;;;;6.43;2.50;;;;;;;;;;5075577;28;20020;-82
2022/04/03 07:57:10;;;;;;;5.43;2.50;;;;;;;;;;5073729;28;20494;-83
2022/04/03 07:59:36;;;;;;;8.85;2.63;;;;;;;;;;5074034;28;20039;-83
2022/04/03 08:02:02;;;;;;;4.13;2.22;;;;;;;;;;5080792;28;20029;-82
2022/04/03 08:04:28;;;;;;;3.65;2.22;;;;;;;;;;5089913;28;20024;-83
2022/04/03 08:06:54;;;;;;;5.13;2.47;;;;;;;;;;5082588;28;20386;-83
2022/04/03 08:09:21;;;;;;;2.78;2.10;;;;;;;;;;5084632;28;20103;-83
2022/04/03 08:11:47;;;;;;;3.13;1.83;;;;;;;;;;5083134;28;20091;-84
2022/04/03 08:14:13;;;;;;;5.38;2.20;;;;;;;;;;5089340;28;20131;-83
2022/04/03 08:16:39;;;;;;;3.55;2.33;;;;;;;;;;5084059;28;20446;-83
2022/04/03 08:19:06;;;;;;;3.35;1.90;;;;;;;;;;5090342;28;20460;-84
2022/04/03 08:21:32;;;;;;;3.40;2.42;;;;;;;;;;5083722;28;20530;-84
2022/04/03 08:23:58;;;;;;;4.05;2.00;;;;;;;;;;5086523;28;20039;-84
2022/04/03 08:26:26;;;;;;;5.13;2.10;;;;;;;;;;5074659;28;20471;-83
2022/04/03 08:28:52;;;;;;;2.75;1.92;;;;;;;;;;5080637;28;20055;-83
2022/04/03 08:31:19;;;;;;;4.55;2.25;;;;;;;;;;5082253;28;20093;-83
2022/04/03 08:33:47;;;;;;;5.80;2.30;;;;;;;;;;5088771;28;20044;-84
2022/04/03 08:36:13;;;;;;;3.13;1.70;;;;;;;;;;5082963;28;20032;-83
2022/04/03 08:38:39;;;;;;;4.60;1.70;;;;;;;;;;5078498;28;20024;-84
2022/04/03 08:41:05;;;;;;;4.22;2.20;;;;;;;;;;5077451;28;20175;-83
2022/04/03 08:43:32;;;;;;;3.40;2.10;;;;;;;;;;5087221;28;20051;-84
2022/04/03 08:45:58;;;;;;;2.78;2.13;;;;;;;;;;5084213;28;20028;-83
2022/04/03 08:48:27;;;;;;;2.88;1.65;;;;;;;;;;5079098;28;20032;-84
2022/04/03 08:50:55;;;;;;;4.18;1.80;;;;;;;;;;5080021;28;20039;-83
2022/04/03 08:53:23;;;;;;;7.82;1.50;;;;;;;;;;5079475;28;20612;-83
2022/04/03 08:55:49;;;;;;;4.50;1.90;;;;;;;;;;5085210;28;20036;-83
2022/04/03 08:58:15;;;;;;;7.63;1.98;;;;;;;;;;5090758;28;20036;-83
2022/04/03 09:00:41;;;;;;;2.22;1.75;;;;;;;;;;5083127;28;20043;-84
2022/04/03 09:03:07;;;;;;;3.05;1.52;;;;;;;;;;5084674;28;20875;-83
2022/04/03 09:05:39;;;;;;;3.67;1.77;;;;;;;;;;5087774;28;20055;-84
2022/04/03 09:08:06;;;;;;;3.13;1.77;;;;;;;;;;5082617;28;20048;-83
2022/04/03 09:10:32;;;;;;;4.43;1.90;;;;;;;;;;5083031;28;20450;-83
2022/04/03 09:12:58;;;;;;;3.45;1.63;;;;;;;;;;5083169;28;20044;-83
2022/04/03 09:15:25;;;;;;;2.75;1.70;;;;;;;;;;5083187;28;20016;-83
2022/04/03 09:17:52;;;;;;;3.50;2.75;;;;;;;;;;5081916;28;20522;-84
2022/04/03 09:20:23;;;;;;;2.20;1.60;;;;;;;;;;5088839;28;20419;-83
2022/04/03 09:22:50;;;;;;;2.20;1.70;;;;;;;;;;5078134;28;20034;-83
2022/04/03 09:25:17;;;;;;;4.78;1.63;;;;;;;;;;5077239;28;20474;-82
2022/04/03 09:27:57;;;;;;;2.92;1.85;;;;;;;;;;5085467;28;20601;-83
2022/04/03 09:30:33;;;;;;;4.07;1.40;;;;;;;;;;5079110;28;20036;-81
2022/04/03 09:33:00;;;;;;;3.22;1.80;;;;;;;;;;5080834;28;20490;-83
2022/04/03 09:35:30;;;;;;;5.00;1.83;;;;;;;;;;5078586;28;20031;-82
2022/04/03 09:38:10;;;;;;;4.28;1.70;;;;;;;;;;5088620;28;20019;-82
2022/04/03 09:40:37;;;;;;;1.85;1.30;;;;;;;;;;5075181;28;20044;-83
2022/04/03 09:43:18;;;;;;;3.63;1.90;;;;;;;;;;5072761;28;20442;-83
2022/04/03 09:46:01;;;;;;;5.57;1.70;;;;;;;;;;5084422;28;20036;-84
2022/04/03 09:48:31;;;;;;;3.17;1.80;;;;;;;;;;5075852;28;20034;-83
2022/04/03 09:50:58;;;;;;;1.95;1.60;;;;;;;;;;5087812;28;20032;-83
2022/04/03 09:53:24;;;;;;;2.63;1.67;;;;;;;;;;5083163;28;20020;-82
2022/04/03 09:55:50;;;;;;;5.53;2.05;;;;;;;;;;5084427;28;20028;-83
2022/04/03 09:58:16;;;;;;;1.95;1.50;;;;;;;;;;5088556;28;20024;-83
2022/04/03 10:00:42;;;;;;;2.75;1.45;;;;;;;;;;5088046;28;20590;-83
2022/04/03 10:03:10;;;;;;;2.17;1.52;;;;;;;;;;5085623;28;20020;-83
2022/04/03 10:05:36;;;;;;;2.42;1.80;;;;;;;;;;5074701;28;20517;-80
2022/04/03 10:08:03;;;;;;;2.13;1.73;;;;;;;;;;5078555;28;20021;-77
2022/04/03 10:10:29;;;;;;;3.10;1.85;;;;;;;;;;5083920;28;20032;-80
2022/04/03 10:12:55;;;;;;;2.85;1.80;;;;;;;;;;5090758;28;20297;-76
2022/04/03 10:15:22;;;;;;;1.80;1.60;;;;;;;;;;5077705;28;20117;-80
2022/04/03 10:17:48;;;;;;;3.53;1.83;;;;;;;;;;5079749;28;20021;-79
2022/04/03 10:20:14;;;;;;;1.95;1.70;;;;;;;;;;5079926;28;20043;-79
2022/04/03 10:22:42;;;;;;;2.90;2.10;;;;;;;;;;5088835;28;20016;-80
2022/04/03 10:25:14;;;;;;;6.20;2.20;;;;;;;;;;5083315;28;20085;-79
2022/04/03 10:27:40;;;;;;;3.00;1.90;;;;;;;;;;5084219;28;20032;-80
2022/04/03 10:30:07;;;;;;;5.00;1.85;;;;;;;;;;5079021;28;20024;-78
2022/04/03 10:32:34;;;;;;;2.50;1.60;;;;;;;;;;5073535;28;20379;-78
2022/04/03 10:35:03;;;;;;;2.08;1.80;;;;;;;;;;5087514;28;20028;-79
2022/04/03 10:37:39;;;;;;;3.22;1.77;;;;;;;;;;5075692;28;20161;-79
2022/04/03 10:40:06;;;;;;;2.13;1.45;;;;;;;;;;5075076;28;20029;-78
2022/04/03 10:42:32;;;;;;;2.95;1.58;;;;;;;;;;5085700;28;20506;-78
2022/04/03 10:45:13;;;;;;;2.53;1.80;;;;;;;;;;5078337;28;20032;-80
2022/04/03 10:47:40;;;;;;;3.05;1.60;;;;;;;;;;5074537;28;20027;-79
2022/04/03 10:50:07;;;;;;;2.58;1.80;;;;;;;;;;5078445;28;20040;-75
2022/04/03 10:52:39;;;;;;;2.83;1.52;;;;;;;;;;5084411;28;20028;-78
2022/04/03 10:55:13;;;;;;;3.10;2.03;;;;;;;;;;5078210;28;20047;-79
2022/04/03 10:57:52;;;;;;;3.38;1.70;;;;;;;;;;5084482;28;20028;-81
2022/04/03 11:00:18;;;;;;;3.58;1.80;;;;;;;;;;5087454;28;20036;-75
2022/04/03 11:03:04;;;;;;;3.10;1.65;;;;;;;;;;5078423;28;20501;-78
2022/04/03 11:05:30;;;;;;;3.47;1.85;;;;;;;;;;5043959;28;20127;-76
2022/04/03 11:08:02;;;;;;;3.78;2.00;;;;;;;;;;5078984;28;20165;-76
2022/04/03 11:10:52;;;;;;;2.70;1.90;;;;;;;;;;5077774;28;20032;-76
2022/04/03 11:13:19;;;;;;;4.75;1.85;;;;;;;;;;5077093;28;20077;-76
2022/04/03 11:15:53;;;;;;;2.70;1.60;;;;;;;;;;5075939;28;20578;-76
2022/04/03 11:18:25;;;;;;;5.75;1.83;;;;;;;;;;5071359;28;20059;-76
2022/04/03 11:21:04;;;;;;;2.78;1.80;;;;;;;;;;5078117;28;20024;-75
2022/04/03 11:23:30;;;;;;;3.13;1.77;;;;;;;;;;5085624;28;20031;-80
2022/04/03 11:25:57;;;;;;;2.67;1.95;;;;;;;;;;5084674;28;20016;-75
2022/04/03 11:28:23;;;;;;;2.38;1.75;;;;;;;;;;5077585;28;20552;-76
2022/04/03 11:30:50;;;;;;;2.58;2.05;;;;;;;;;;5074986;28;20464;-77
2022/04/03 11:33:16;;;;;;;6.10;2.05;;;;;;;;;;5088991;28;20016;-77
2022/04/03 11:35:42;;;;;;;7.90;2.20;;;;;;;;;;5089345;28;20046;-77
2022/04/03 11:38:09;;;;;;;5.55;2.10;;;;;;;;;;5075159;28;20024;-77
2022/04/03 11:40:35;;;;;;;5.32;1.95;;;;;;;;;;5074862;28;20038;-77
2022/04/03 11:43:15;;;;;;;3.08;2.17;;;;;;;;;;5083358;28;20119;-77
2022/04/03 11:45:49;;;;;;;4.28;2.35;;;;;;;;;;5081803;28;20240;-77
2022/04/03 11:48:15;;;;;;;3.35;2.13;;;;;;;;;;5086333;28;20035;-77
2022/04/03 11:50:41;;;;;;;2.92;1.60;;;;;;;;;;5081718;28;20042;-77
2022/04/03 11:53:11;;;;;;;2.15;1.65;;;;;;;;;;5085411;28;20050;-77
2022/04/03 11:55:37;;;;;;;5.50;2.00;;;;;;;;;;5089139;28;20508;-77
2022/04/03 11:58:04;;;;;;;4.63;1.73;;;;;;;;;;5085813;28;20028;-77
2022/04/03 12:00:33;;;;;;;3.72;1.70;;;;;;;;;;5069938;28;20032;-77
2022/04/03 12:02:59;;;;;;;1.95;1.38;;;;;;;;;;5069497;28;20679;-77
2022/04/03 12:05:25;;;;;;;6.20;2.00;;;;;;;;;;5072502;28;20278;-78
2022/04/03 12:07:51;;;;;;;2.50;1.45;;;;;;;;;;5080566;28;20115;-78
2022/04/03 12:10:28;;;;;;;2.65;1.42;;;;;;;;;;5072495;28;20025;-78
2022/04/03 12:12:55;;;;;;;2.28;1.50;;;;;;;;;;5073895;28;20116;-78
2022/04/03 12:15:22;;;;;;;3.60;1.50;;;;;;;;;;5085468;28;20135;-78
2022/04/03 12:17:55;;;;;;;5.05;1.60;;;;;;;;;;5082153;28;20166;-77
2022/04/03 12:20:21;;;;;;;2.13;1.25;;;;;;;;;;5080792;28;20491;-77
2022/04/03 12:22:51;;;;;;;5.20;1.98;;;;;;;;;;5072069;28;20032;-78
2022/04/03 12:25:17;;;;;;;3.00;1.50;;;;;;;;;;5080245;28;20024;-76
2022/04/03 12:27:43;;;;;;;2.80;1.70;;;;;;;;;;5068671;28;20048;-76
2022/04/03 12:30:09;;;;;;;4.97;1.50;;;;;;;;;;5084785;28;20101;-77
2022/04/03 12:32:36;;;;;;;5.22;1.67;;;;;;;;;;5075368;28;20016;-77
2022/04/03 12:35:07;;;;;;;1.92;1.40;;;;;;;;;;5075224;28;20375;-77
2022/04/03 12:37:51;;;;;;;3.50;1.60;;;;;;;;;;5080755;28;20395;-76
2022/04/03 12:40:17;;;;;;;3.20;1.70;;;;;;;;;;5081289;28;20077;-77
2022/04/03 12:42:44;;;;;;;4.38;1.90;;;;;;;;;;5078302;28;20367;-77
2022/04/03 12:45:15;;;;;;;3.75;1.50;;;;;;;;;;5082349;28;20505;-77
2022/04/03 12:47:49;;;;;;;3.80;1.48;;;;;;;;;;5090877;28;20032;-77
2022/04/03 12:50:16;;;;;;;3.80;1.60;;;;;;;;;;5084745;28;20081;-78
2022/04/03 12:52:42;;;;;;;3.67;1.60;;;;;;;;;;5079660;28;20032;-78
2022/04/03 12:55:28;;;;;;;3.92;1.65;;;;;;;;;;5076884;28;20032;-78
2022/04/03 13:00:42;;;;;;;2.55;1.50;;;;;;;;;;5092479;28;20488;-78
2022/04/03 13:03:08;;;;;;;2.75;1.60;;;;;;;;;;5074147;28;20016;-77
2022/04/03 13:05:34;;;;;;;5.70;1.75;;;;;;;;;;5076760;28;20035;-77
2022/04/03 13:08:09;;;;;;;3.00;1.70;;;;;;;;;;5079717;28;20035;-79
2022/04/03 13:10:50;;;;;;;6.78;1.60;;;;;;;;;;5087253;28;20036;-77
2022/04/03 13:13:19;;;;;;;5.60;1.77;;;;;;;;;;5078086;28;20080;-77
2022/04/03 13:15:46;;;;;;;4.72;1.50;;;;;;;;;;5082097;28;20599;-77
2022/04/03 13:18:12;;;;;;;3.22;1.40;;;;;;;;;;5087537;28;20025;-76
2022/04/03 13:20:37;;;;;;;4.10;1.50;;;;;;;;;;5087740;28;20089;-76
2022/04/03 13:23:03;;;;;;;3.95;1.42;;;;;;;;;;5091371;28;20071;-76
2022/04/03 13:25:29;;;;;;;2.70;1.30;;;;;;;;;;5078754;28;20028;-77
2022/04/03 13:27:55;;;;;;;5.03;1.40;;;;;;;;;;5082097;28;20048;-77
2022/04/03 13:30:22;;;;;;;2.90;1.20;;;;;;;;;;5085080;28;20462;-77
2022/04/03 13:32:48;;;;;;;5.53;1.20;;;;;;;;;;5086102;28;20031;-78
2022/04/03 13:35:14;;;;;;;3.25;1.42;;;;;;;;;;5079128;28;20559;-77
2022/04/03 13:37:40;;;;;;;4.63;1.00;;;;;;;;;;5080070;28;20449;-78
2022/04/03 13:40:06;;;;;;;3.70;1.25;;;;;;;;;;5081921;28;20115;-81
2022/04/03 13:42:32;;;;;;;3.70;1.20;;;;;;;;;;5088442;28;20043;-77
2022/04/03 13:44:58;;;;;;;3.47;1.00;;;;;;;;;;5086299;28;20528;-77
2022/04/03 13:47:24;;;;;;;1.23;1.10;;;;;;;;;;5091412;28;20032;-77
2022/04/03 13:49:50;;;;;;;2.53;1.00;;;;;;;;;;5086251;28;20028;-77
2022/04/03 13:52:16;;;;;;;4.55;1.25;;;;;;;;;;5087126;28;20032;-76
2022/04/03 13:54:42;;;;;;;2.88;1.02;;;;;;;;;;5078198;28;20035;-77
2022/04/03 13:57:08;;;;;;;1.20;1.10;;;;;;;;;;5073114;28;20031;-78
2022/04/03 13:59:34;;;;;;;1.38;1.23;;;;;;;;;;5080120;28;20020;-80
2022/04/03 14:02:00;;;;;;;5.38;1.20;;;;;;;;;;5089228;28;20394;-78
2022/04/03 14:04:29;;;;;;;2.00;1.20;;;;;;;;;;5087705;28;20028;-78
2022/04/03 14:06:55;;;;;;;4.32;1.45;;;;;;;;;;5086229;28;20077;-82
2022/04/03 14:09:21;;;;;;;4.88;1.40;;;;;;;;;;5088433;28;20668;-83
2022/04/03 14:11:48;;;;;;;1.63;1.10;;;;;;;;;;5076256;28;20032;-80
2022/04/03 14:14:14;;;;;;;1.58;1.25;;;;;;;;;;5073606;28;20028;-82
2022/04/03 14:16:40;;;;;;;6.07;1.38;;;;;;;;;;5084023;28;20031;-83
2022/04/03 14:19:05;;;;;;;7.57;1.33;;;;;;;;;;5077603;28;20028;-82
2022/04/03 14:21:32;;;;;;;1.25;1.15;;;;;;;;;;5083792;28;20115;-82
2022/04/03 14:23:58;;;;;;;2.85;1.30;;;;;;;;;;5074451;28;20024;-80
2022/04/03 14:26:24;;;;;;;1.30;1.20;;;;;;;;;;5076820;28;20578;-82
2022/04/03 14:28:50;;;;;;;2.10;0.90;;;;;;;;;;5083814;28;20038;-81
2022/04/03 14:31:17;;;;;;;1.77;1.40;;;;;;;;;;5079070;28;20032;-79
2022/04/03 14:33:43;;;;;;;3.70;1.30;;;;;;;;;;5081659;28;20483;-82
2022/04/03 14:36:09;;;;;;;2.17;1.30;;;;;;;;;;5086169;28;20035;-86
2022/04/03 14:38:36;;;;;;;5.43;1.35;;;;;;;;;;5085713;28;20032;-83
2022/04/03 14:41:02;;;;;;;7.90;1.63;;;;;;;;;;5080830;28;20522;-83
2022/04/03 14:43:27;;;;;;;2.20;1.33;;;;;;;;;;5089069;28;20024;-83
2022/04/03 14:45:53;;;;;;;5.20;1.25;;;;;;;;;;5080633;28;20494;-79